sensor_id;sensor_type;location;lat;lon;timestamp;P1;durP1;ratioP1;P2;durP2;ratioP2
65831;SDS011;52593;42.648;23.332;2023-12-20T00:00:46;46.95;;;17.63;;
65831;SDS011;52593;42.648;23.332;2023-12-20T00:03:12;46.20;;;19.23;;
65831;SDS011;52593;42.648;23.332;2023-12-20T00:05:37;42.83;;;17.77;;
65831;SDS011;52593;42.648;23.332;2023-12-20T00:08:06;45.78;;;17.40;;
65831;SDS011;52593;42.648;23.332;2023-12-20T00:10:31;49.30;;;18.50;;
65831;SDS011;52593;42.648;23.332;2023-12-20T00:12:57;47.67;;;18.03;;
65831;SDS011;52593;42.648;23.332;2023-12-20T00:15:22;42.90;;;17.80;;
65831;SDS011;52593;42.648;23.332;2023-12-20T00:17:48;43.00;;;16.93;;
65831;SDS011;52593;42.648;23.332;2023-12-20T00:20:13;39.63;;;16.42;;
65831;SDS011;52593;42.648;23.332;2023-12-20T00:22:39;45.23;;;17.80;;
65831;SDS011;52593;42.648;23.332;2023-12-20T00:25:04;36.10;;;15.87;;
65831;SDS011;52593;42.648;23.332;2023-12-20T00:27:30;43.22;;;17.50;;
65831;SDS011;52593;42.648;23.332;2023-12-20T00:29:55;45.27;;;17.30;;
65831;SDS011;52593;42.648;23.332;2023-12-20T00:32:21;47.23;;;17.73;;
65831;SDS011;52593;42.648;23.332;2023-12-20T00:34:47;40.47;;;15.70;;
65831;SDS011;52593;42.648;23.332;2023-12-20T00:37:12;45.07;;;17.07;;
65831;SDS011;52593;42.648;23.332;2023-12-20T00:39:38;41.20;;;16.23;;
65831;SDS011;52593;42.648;23.332;2023-12-20T00:42:03;44.13;;;17.03;;
65831;SDS011;52593;42.648;23.332;2023-12-20T00:44:29;43.53;;;16.60;;
65831;SDS011;52593;42.648;23.332;2023-12-20T00:46:54;39.38;;;16.23;;
65831;SDS011;52593;42.648;23.332;2023-12-20T00:49:20;39.70;;;15.10;;
65831;SDS011;52593;42.648;23.332;2023-12-20T00:51:45;39.83;;;14.93;;
65831;SDS011;52593;42.648;23.332;2023-12-20T00:54:12;35.03;;;14.68;;
65831;SDS011;52593;42.648;23.332;2023-12-20T00:56:37;38.63;;;14.60;;
65831;SDS011;52593;42.648;23.332;2023-12-20T00:59:02;40.73;;;15.13;;
65831;SDS011;52593;42.648;23.332;2023-12-20T01:01:28;35.63;;;14.07;;
65831;SDS011;52593;42.648;23.332;2023-12-20T01:03:53;29.07;;;12.63;;
65831;SDS011;52593;42.648;23.332;2023-12-20T01:06:20;37.05;;;13.95;;
65831;SDS011;52593;42.648;23.332;2023-12-20T01:08:46;29.20;;;12.47;;
65831;SDS011;52593;42.648;23.332;2023-12-20T01:11:11;35.50;;;13.40;;
65831;SDS011;52593;42.648;23.332;2023-12-20T01:13:36;33.30;;;13.10;;
65831;SDS011;52593;42.648;23.332;2023-12-20T01:16:02;27.20;;;11.00;;
65831;SDS011;52593;42.648;23.332;2023-12-20T01:18:28;28.40;;;11.20;;
65831;SDS011;52593;42.648;23.332;2023-12-20T01:20:53;30.23;;;11.27;;
65831;SDS011;52593;42.648;23.332;2023-12-20T01:23:19;24.23;;;9.40;;
65831;SDS011;52593;42.648;23.332;2023-12-20T01:25:44;21.03;;;8.83;;
65831;SDS011;52593;42.648;23.332;2023-12-20T01:28:10;23.63;;;9.47;;
65831;SDS011;52593;42.648;23.332;2023-12-20T01:30:35;19.52;;;8.23;;
65831;SDS011;52593;42.648;23.332;2023-12-20T01:33:00;20.37;;;7.97;;
65831;SDS011;52593;42.648;23.332;2023-12-20T01:35:26;22.30;;;8.33;;
65831;SDS011;52593;42.648;23.332;2023-12-20T01:37:52;25.92;;;8.77;;
65831;SDS011;52593;42.648;23.332;2023-12-20T01:40:21;19.20;;;8.05;;
65831;SDS011;52593;42.648;23.332;2023-12-20T01:42:47;24.37;;;8.60;;
65831;SDS011;52593;42.648;23.332;2023-12-20T01:45:12;22.67;;;8.65;;
65831;SDS011;52593;42.648;23.332;2023-12-20T01:47:38;20.70;;;8.90;;
65831;SDS011;52593;42.648;23.332;2023-12-20T01:50:04;22.00;;;8.87;;
65831;SDS011;52593;42.648;23.332;2023-12-20T01:52:33;21.45;;;8.25;;
65831;SDS011;52593;42.648;23.332;2023-12-20T01:54:59;25.15;;;8.73;;
65831;SDS011;52593;42.648;23.332;2023-12-20T01:57:27;22.52;;;7.63;;
65831;SDS011;52593;42.648;23.332;2023-12-20T01:59:53;20.37;;;8.23;;
65831;SDS011;52593;42.648;23.332;2023-12-20T02:02:19;19.38;;;7.47;;
65831;SDS011;52593;42.648;23.332;2023-12-20T02:04:45;20.93;;;7.40;;
65831;SDS011;52593;42.648;23.332;2023-12-20T02:07:10;21.63;;;7.75;;
65831;SDS011;52593;42.648;23.332;2023-12-20T02:09:36;21.97;;;7.73;;
65831;SDS011;52593;42.648;23.332;2023-12-20T02:12:03;23.40;;;7.60;;
65831;SDS011;52593;42.648;23.332;2023-12-20T02:14:29;18.00;;;7.50;;
65831;SDS011;52593;42.648;23.332;2023-12-20T02:16:55;21.60;;;7.50;;
65831;SDS011;52593;42.648;23.332;2023-12-20T02:19:21;17.27;;;6.50;;
65831;SDS011;52593;42.648;23.332;2023-12-20T02:21:46;20.07;;;7.97;;
65831;SDS011;52593;42.648;23.332;2023-12-20T02:24:12;16.38;;;7.68;;
65831;SDS011;52593;42.648;23.332;2023-12-20T02:26:37;18.77;;;7.67;;
65831;SDS011;52593;42.648;23.332;2023-12-20T02:29:03;21.02;;;8.25;;
65831;SDS011;52593;42.648;23.332;2023-12-20T02:31:29;23.63;;;8.17;;
65831;SDS011;52593;42.648;23.332;2023-12-20T02:33:54;21.13;;;6.93;;
65831;SDS011;52593;42.648;23.332;2023-12-20T02:36:20;20.58;;;7.43;;
65831;SDS011;52593;42.648;23.332;2023-12-20T02:38:45;25.23;;;9.20;;
65831;SDS011;52593;42.648;23.332;2023-12-20T02:41:11;22.20;;;7.82;;
65831;SDS011;52593;42.648;23.332;2023-12-20T02:43:37;22.73;;;10.07;;
65831;SDS011;52593;42.648;23.332;2023-12-20T02:46:03;25.53;;;10.10;;
65831;SDS011;52593;42.648;23.332;2023-12-20T02:48:28;24.65;;;10.48;;
65831;SDS011;52593;42.648;23.332;2023-12-20T02:50:54;27.23;;;10.53;;
65831;SDS011;52593;42.648;23.332;2023-12-20T02:53:19;23.70;;;10.13;;
65831;SDS011;52593;42.648;23.332;2023-12-20T02:55:45;21.57;;;8.47;;
65831;SDS011;52593;42.648;23.332;2023-12-20T02:58:10;28.17;;;9.63;;
65831;SDS011;52593;42.648;23.332;2023-12-20T03:00:36;25.73;;;9.43;;
65831;SDS011;52593;42.648;23.332;2023-12-20T03:03:01;28.90;;;9.95;;
65831;SDS011;52593;42.648;23.332;2023-12-20T03:05:27;29.83;;;11.57;;
65831;SDS011;52593;42.648;23.332;2023-12-20T03:07:52;25.80;;;10.90;;
65831;SDS011;52593;42.648;23.332;2023-12-20T03:10:18;24.50;;;9.98;;
65831;SDS011;52593;42.648;23.332;2023-12-20T03:12:44;23.40;;;9.10;;
65831;SDS011;52593;42.648;23.332;2023-12-20T03:15:10;25.88;;;10.70;;
65831;SDS011;52593;42.648;23.332;2023-12-20T03:17:35;28.17;;;10.90;;
65831;SDS011;52593;42.648;23.332;2023-12-20T03:20:01;28.88;;;11.25;;
65831;SDS011;52593;42.648;23.332;2023-12-20T03:22:27;32.57;;;11.17;;
65831;SDS011;52593;42.648;23.332;2023-12-20T03:24:52;27.40;;;10.80;;
65831;SDS011;52593;42.648;23.332;2023-12-20T03:27:17;28.90;;;10.50;;
65831;SDS011;52593;42.648;23.332;2023-12-20T03:29:43;26.40;;;11.60;;
65831;SDS011;52593;42.648;23.332;2023-12-20T03:32:08;28.53;;;10.70;;
65831;SDS011;52593;42.648;23.332;2023-12-20T03:34:34;30.92;;;10.13;;
65831;SDS011;52593;42.648;23.332;2023-12-20T03:36:59;24.77;;;10.60;;
65831;SDS011;52593;42.648;23.332;2023-12-20T03:39:25;30.13;;;10.27;;
65831;SDS011;52593;42.648;23.332;2023-12-20T03:41:50;30.70;;;11.33;;
65831;SDS011;52593;42.648;23.332;2023-12-20T03:44:16;32.22;;;12.02;;
65831;SDS011;52593;42.648;23.332;2023-12-20T03:46:41;26.13;;;10.00;;
65831;SDS011;52593;42.648;23.332;2023-12-20T03:49:07;28.27;;;11.80;;
65831;SDS011;52593;42.648;23.332;2023-12-20T03:51:32;30.43;;;12.20;;
65831;SDS011;52593;42.648;23.332;2023-12-20T03:53:58;26.03;;;10.90;;
65831;SDS011;52593;42.648;23.332;2023-12-20T03:56:23;31.43;;;11.53;;
65831;SDS011;52593;42.648;23.332;2023-12-20T03:58:48;25.03;;;11.87;;
65831;SDS011;52593;42.648;23.332;2023-12-20T04:01:14;30.17;;;11.43;;
65831;SDS011;52593;42.648;23.332;2023-12-20T04:03:39;26.00;;;12.27;;
65831;SDS011;52593;42.648;23.332;2023-12-20T04:06:05;30.05;;;12.63;;
65831;SDS011;52593;42.648;23.332;2023-12-20T04:08:31;34.22;;;12.70;;
65831;SDS011;52593;42.648;23.332;2023-12-20T04:10:56;29.30;;;11.57;;
65831;SDS011;52593;42.648;23.332;2023-12-20T04:13:22;36.17;;;13.27;;
65831;SDS011;52593;42.648;23.332;2023-12-20T04:15:47;30.83;;;12.90;;
65831;SDS011;52593;42.648;23.332;2023-12-20T04:18:15;32.30;;;12.33;;
65831;SDS011;52593;42.648;23.332;2023-12-20T04:20:40;34.70;;;13.32;;
65831;SDS011;52593;42.648;23.332;2023-12-20T04:23:06;29.27;;;11.97;;
65831;SDS011;52593;42.648;23.332;2023-12-20T04:25:31;32.33;;;12.83;;
65831;SDS011;52593;42.648;23.332;2023-12-20T04:27:57;30.53;;;13.13;;
65831;SDS011;52593;42.648;23.332;2023-12-20T04:30:22;33.22;;;12.68;;
65831;SDS011;52593;42.648;23.332;2023-12-20T04:32:48;29.83;;;12.27;;
65831;SDS011;52593;42.648;23.332;2023-12-20T04:35:13;34.10;;;13.10;;
65831;SDS011;52593;42.648;23.332;2023-12-20T04:37:39;32.60;;;11.90;;
65831;SDS011;52593;42.648;23.332;2023-12-20T04:40:04;29.20;;;11.40;;
65831;SDS011;52593;42.648;23.332;2023-12-20T04:42:30;27.13;;;12.02;;
65831;SDS011;52593;42.648;23.332;2023-12-20T04:44:56;27.23;;;10.60;;
65831;SDS011;52593;42.648;23.332;2023-12-20T04:47:21;36.17;;;12.20;;
65831;SDS011;52593;42.648;23.332;2023-12-20T04:49:47;27.20;;;11.05;;
65831;SDS011;52593;42.648;23.332;2023-12-20T04:52:13;30.47;;;11.50;;
65831;SDS011;52593;42.648;23.332;2023-12-20T04:54:39;32.20;;;12.10;;
65831;SDS011;52593;42.648;23.332;2023-12-20T04:57:05;33.03;;;12.57;;
65831;SDS011;52593;42.648;23.332;2023-12-20T04:59:30;36.27;;;13.37;;
65831;SDS011;52593;42.648;23.332;2023-12-20T05:01:56;30.83;;;12.27;;
65831;SDS011;52593;42.648;23.332;2023-12-20T05:04:22;34.45;;;12.10;;
65831;SDS011;52593;42.648;23.332;2023-12-20T05:06:48;27.43;;;11.13;;
65831;SDS011;52593;42.648;23.332;2023-12-20T05:09:15;24.33;;;10.35;;
65831;SDS011;52593;42.648;23.332;2023-12-20T05:11:40;31.80;;;12.17;;
65831;SDS011;52593;42.648;23.332;2023-12-20T05:14:06;34.93;;;13.77;;
65831;SDS011;52593;42.648;23.332;2023-12-20T05:16:32;28.42;;;11.43;;
65831;SDS011;52593;42.648;23.332;2023-12-20T05:18:57;25.63;;;10.93;;
65831;SDS011;52593;42.648;23.332;2023-12-20T05:21:25;30.30;;;11.57;;
65831;SDS011;52593;42.648;23.332;2023-12-20T05:23:51;44.47;;;16.63;;
65831;SDS011;52593;42.648;23.332;2023-12-20T05:26:16;43.00;;;17.33;;
65831;SDS011;52593;42.648;23.332;2023-12-20T05:28:42;31.23;;;13.57;;
65831;SDS011;52593;42.648;23.332;2023-12-20T05:31:07;47.50;;;17.40;;
65831;SDS011;52593;42.648;23.332;2023-12-20T05:33:33;43.40;;;17.37;;
65831;SDS011;52593;42.648;23.332;2023-12-20T05:35:58;45.10;;;18.27;;
65831;SDS011;52593;42.648;23.332;2023-12-20T05:38:24;49.13;;;19.37;;
65831;SDS011;52593;42.648;23.332;2023-12-20T05:40:49;53.90;;;21.15;;
65831;SDS011;52593;42.648;23.332;2023-12-20T05:43:15;55.73;;;22.90;;
65831;SDS011;52593;42.648;23.332;2023-12-20T05:45:40;59.30;;;24.07;;
65831;SDS011;52593;42.648;23.332;2023-12-20T05:48:06;52.57;;;21.23;;
65831;SDS011;52593;42.648;23.332;2023-12-20T05:50:31;59.42;;;23.45;;
65831;SDS011;52593;42.648;23.332;2023-12-20T05:52:57;53.93;;;22.70;;
65831;SDS011;52593;42.648;23.332;2023-12-20T05:55:22;52.03;;;21.67;;
65831;SDS011;52593;42.648;23.332;2023-12-20T05:57:48;44.58;;;20.00;;
65831;SDS011;52593;42.648;23.332;2023-12-20T06:00:13;48.90;;;20.27;;
65831;SDS011;52593;42.648;23.332;2023-12-20T06:02:40;62.90;;;22.98;;
65831;SDS011;52593;42.648;23.332;2023-12-20T06:05:06;61.77;;;23.03;;
65831;SDS011;52593;42.648;23.332;2023-12-20T06:07:31;55.25;;;22.88;;
65831;SDS011;52593;42.648;23.332;2023-12-20T06:09:57;60.83;;;22.73;;
65831;SDS011;52593;42.648;23.332;2023-12-20T06:12:22;60.57;;;24.20;;
65831;SDS011;52593;42.648;23.332;2023-12-20T06:14:48;59.72;;;23.42;;
65831;SDS011;52593;42.648;23.332;2023-12-20T06:17:13;64.53;;;25.57;;
65831;SDS011;52593;42.648;23.332;2023-12-20T06:19:39;59.80;;;24.30;;
65831;SDS011;52593;42.648;23.332;2023-12-20T06:22:04;66.27;;;26.00;;
65831;SDS011;52593;42.648;23.332;2023-12-20T06:24:30;62.60;;;25.27;;
65831;SDS011;52593;42.648;23.332;2023-12-20T06:26:55;68.67;;;24.83;;
65831;SDS011;52593;42.648;23.332;2023-12-20T06:29:21;59.80;;;25.57;;
65831;SDS011;52593;42.648;23.332;2023-12-20T06:31:46;65.63;;;26.13;;
65831;SDS011;52593;42.648;23.332;2023-12-20T06:34:12;71.77;;;27.27;;
65831;SDS011;52593;42.648;23.332;2023-12-20T06:36:37;78.67;;;28.43;;
65831;SDS011;52593;42.648;23.332;2023-12-20T06:39:03;73.10;;;27.47;;
65831;SDS011;52593;42.648;23.332;2023-12-20T06:41:29;66.05;;;25.88;;
65831;SDS011;52593;42.648;23.332;2023-12-20T06:43:55;63.92;;;26.85;;
65831;SDS011;52593;42.648;23.332;2023-12-20T06:46:21;71.03;;;28.47;;
65831;SDS011;52593;42.648;23.332;2023-12-20T06:48:46;73.07;;;30.30;;
65831;SDS011;52593;42.648;23.332;2023-12-20T06:51:13;79.07;;;29.98;;
65831;SDS011;52593;42.648;23.332;2023-12-20T06:53:40;81.03;;;30.37;;
65831;SDS011;52593;42.648;23.332;2023-12-20T06:56:05;75.30;;;29.52;;
65831;SDS011;52593;42.648;23.332;2023-12-20T06:58:32;75.73;;;27.97;;
65831;SDS011;52593;42.648;23.332;2023-12-20T07:00:58;58.47;;;24.65;;
65831;SDS011;52593;42.648;23.332;2023-12-20T07:03:23;61.03;;;23.80;;
65831;SDS011;52593;42.648;23.332;2023-12-20T07:05:49;78.63;;;31.03;;
65831;SDS011;52593;42.648;23.332;2023-12-20T07:08:14;77.80;;;30.87;;
65831;SDS011;52593;42.648;23.332;2023-12-20T07:10:40;79.35;;;32.65;;
65831;SDS011;52593;42.648;23.332;2023-12-20T07:13:06;69.63;;;28.07;;
65831;SDS011;52593;42.648;23.332;2023-12-20T07:15:32;72.60;;;29.05;;
65831;SDS011;52593;42.648;23.332;2023-12-20T07:17:58;78.33;;;29.80;;
65831;SDS011;52593;42.648;23.332;2023-12-20T07:20:25;78.57;;;28.80;;
65831;SDS011;52593;42.648;23.332;2023-12-20T07:22:51;75.53;;;30.58;;
65831;SDS011;52593;42.648;23.332;2023-12-20T07:25:16;73.87;;;28.07;;
65831;SDS011;52593;42.648;23.332;2023-12-20T07:27:42;80.13;;;33.17;;
65831;SDS011;52593;42.648;23.332;2023-12-20T07:30:07;73.90;;;28.30;;
65831;SDS011;52593;42.648;23.332;2023-12-20T07:32:33;87.30;;;32.90;;
65831;SDS011;52593;42.648;23.332;2023-12-20T07:34:59;90.97;;;33.67;;
65831;SDS011;52593;42.648;23.332;2023-12-20T07:37:24;86.93;;;34.37;;
65831;SDS011;52593;42.648;23.332;2023-12-20T07:39:50;85.45;;;33.72;;
65831;SDS011;52593;42.648;23.332;2023-12-20T07:42:16;80.27;;;31.20;;
65831;SDS011;52593;42.648;23.332;2023-12-20T07:44:41;73.07;;;29.70;;
65831;SDS011;52593;42.648;23.332;2023-12-20T07:47:07;86.97;;;35.53;;
65831;SDS011;52593;42.648;23.332;2023-12-20T07:49:32;86.07;;;31.75;;
65831;SDS011;52593;42.648;23.332;2023-12-20T07:51:58;81.10;;;32.63;;
65831;SDS011;52593;42.648;23.332;2023-12-20T07:54:23;72.63;;;30.73;;
65831;SDS011;52593;42.648;23.332;2023-12-20T07:56:49;86.93;;;33.58;;
65831;SDS011;52593;42.648;23.332;2023-12-20T07:59:14;95.87;;;36.63;;
65831;SDS011;52593;42.648;23.332;2023-12-20T08:01:40;95.13;;;36.37;;
65831;SDS011;52593;42.648;23.332;2023-12-20T08:04:06;90.97;;;38.03;;
65831;SDS011;52593;42.648;23.332;2023-12-20T08:06:31;93.83;;;35.23;;
65831;SDS011;52593;42.648;23.332;2023-12-20T08:08:56;92.45;;;34.33;;
65831;SDS011;52593;42.648;23.332;2023-12-20T08:11:22;89.63;;;33.87;;
65831;SDS011;52593;42.648;23.332;2023-12-20T08:13:47;56.10;;;25.53;;
65831;SDS011;52593;42.648;23.332;2023-12-20T08:16:13;85.20;;;31.63;;
65831;SDS011;52593;42.648;23.332;2023-12-20T08:18:40;60.57;;;28.20;;
65831;SDS011;52593;42.648;23.332;2023-12-20T08:21:06;74.13;;;31.05;;
65831;SDS011;52593;42.648;23.332;2023-12-20T08:23:33;74.27;;;29.93;;
65831;SDS011;52593;42.648;23.332;2023-12-20T08:26:03;79.55;;;31.30;;
65831;SDS011;52593;42.648;23.332;2023-12-20T08:28:31;83.78;;;32.92;;
65831;SDS011;52593;42.648;23.332;2023-12-20T08:30:57;73.20;;;26.07;;
65831;SDS011;52593;42.648;23.332;2023-12-20T08:33:22;88.30;;;32.85;;
65831;SDS011;52593;42.648;23.332;2023-12-20T08:35:48;65.03;;;28.43;;
65831;SDS011;52593;42.648;23.332;2023-12-20T08:38:13;88.23;;;32.57;;
65831;SDS011;52593;42.648;23.332;2023-12-20T08:40:39;80.05;;;30.17;;
65831;SDS011;52593;42.648;23.332;2023-12-20T08:43:05;79.17;;;32.17;;
65831;SDS011;52593;42.648;23.332;2023-12-20T08:45:30;67.47;;;30.13;;
65831;SDS011;52593;42.648;23.332;2023-12-20T08:47:56;82.47;;;31.97;;
65831;SDS011;52593;42.648;23.332;2023-12-20T08:50:21;78.23;;;30.37;;
65831;SDS011;52593;42.648;23.332;2023-12-20T08:52:46;60.53;;;24.27;;
65831;SDS011;52593;42.648;23.332;2023-12-20T08:55:12;77.47;;;29.38;;
65831;SDS011;52593;42.648;23.332;2023-12-20T08:57:38;65.17;;;25.37;;
65831;SDS011;52593;42.648;23.332;2023-12-20T09:00:03;67.37;;;25.43;;
65831;SDS011;52593;42.648;23.332;2023-12-20T09:02:29;56.53;;;24.77;;
65831;SDS011;52593;42.648;23.332;2023-12-20T09:04:55;69.07;;;25.52;;
65831;SDS011;52593;42.648;23.332;2023-12-20T09:07:21;60.00;;;24.17;;
65831;SDS011;52593;42.648;23.332;2023-12-20T09:09:47;60.10;;;23.30;;
65831;SDS011;52593;42.648;23.332;2023-12-20T09:12:13;69.17;;;24.13;;
65831;SDS011;52593;42.648;23.332;2023-12-20T09:14:38;55.45;;;20.48;;
65831;SDS011;52593;42.648;23.332;2023-12-20T09:17:03;55.80;;;21.40;;
65831;SDS011;52593;42.648;23.332;2023-12-20T09:19:29;57.80;;;21.37;;
65831;SDS011;52593;42.648;23.332;2023-12-20T09:21:55;58.03;;;22.30;;
65831;SDS011;52593;42.648;23.332;2023-12-20T09:24:20;56.40;;;22.30;;
65831;SDS011;52593;42.648;23.332;2023-12-20T09:26:45;59.03;;;22.47;;
65831;SDS011;52593;42.648;23.332;2023-12-20T09:29:11;58.30;;;22.53;;
65831;SDS011;52593;42.648;23.332;2023-12-20T09:31:40;48.20;;;19.83;;
65831;SDS011;52593;42.648;23.332;2023-12-20T09:34:06;53.53;;;20.75;;
65831;SDS011;52593;42.648;23.332;2023-12-20T09:36:32;55.47;;;21.23;;
65831;SDS011;52593;42.648;23.332;2023-12-20T09:39:01;52.42;;;20.30;;
65831;SDS011;52593;42.648;23.332;2023-12-20T09:41:27;57.40;;;21.67;;
65831;SDS011;52593;42.648;23.332;2023-12-20T09:43:56;61.17;;;22.73;;
65831;SDS011;52593;42.648;23.332;2023-12-20T09:46:27;54.70;;;21.10;;
65831;SDS011;52593;42.648;23.332;2023-12-20T09:48:58;64.20;;;22.33;;
65831;SDS011;52593;42.648;23.332;2023-12-20T09:51:26;58.90;;;21.23;;
65831;SDS011;52593;42.648;23.332;2023-12-20T09:53:54;67.07;;;23.67;;
65831;SDS011;52593;42.648;23.332;2023-12-20T09:56:22;59.50;;;22.50;;
65831;SDS011;52593;42.648;23.332;2023-12-20T09:58:48;62.92;;;23.20;;
65831;SDS011;52593;42.648;23.332;2023-12-20T10:01:14;59.87;;;22.50;;
65831;SDS011;52593;42.648;23.332;2023-12-20T10:03:41;58.97;;;22.77;;
65831;SDS011;52593;42.648;23.332;2023-12-20T10:06:07;74.30;;;24.60;;
65831;SDS011;52593;42.648;23.332;2023-12-20T10:08:33;56.05;;;22.00;;
65831;SDS011;52593;42.648;23.332;2023-12-20T10:10:59;52.37;;;20.40;;
65831;SDS011;52593;42.648;23.332;2023-12-20T10:13:27;59.85;;;21.65;;
65831;SDS011;52593;42.648;23.332;2023-12-20T10:15:54;51.43;;;19.83;;
65831;SDS011;52593;42.648;23.332;2023-12-20T10:18:20;56.90;;;20.40;;
65831;SDS011;52593;42.648;23.332;2023-12-20T10:20:46;64.50;;;23.42;;
65831;SDS011;52593;42.648;23.332;2023-12-20T10:23:12;47.92;;;19.27;;
65831;SDS011;52593;42.648;23.332;2023-12-20T10:25:39;69.18;;;24.23;;
65831;SDS011;52593;42.648;23.332;2023-12-20T10:28:09;65.40;;;23.17;;
65831;SDS011;52593;42.648;23.332;2023-12-20T10:30:36;63.90;;;23.17;;
65831;SDS011;52593;42.648;23.332;2023-12-20T10:33:02;68.00;;;25.13;;
65831;SDS011;52593;42.648;23.332;2023-12-20T10:35:27;62.50;;;24.60;;
65831;SDS011;52593;42.648;23.332;2023-12-20T10:37:55;65.23;;;24.17;;
65831;SDS011;52593;42.648;23.332;2023-12-20T10:40:21;69.90;;;24.90;;
65831;SDS011;52593;42.648;23.332;2023-12-20T10:42:48;66.78;;;24.17;;
65831;SDS011;52593;42.648;23.332;2023-12-20T10:45:15;60.03;;;22.98;;
65831;SDS011;52593;42.648;23.332;2023-12-20T10:47:42;68.18;;;24.95;;
65831;SDS011;52593;42.648;23.332;2023-12-20T10:50:11;63.47;;;24.97;;
65831;SDS011;52593;42.648;23.332;2023-12-20T10:52:36;62.17;;;21.75;;
65831;SDS011;52593;42.648;23.332;2023-12-20T10:55:03;70.85;;;24.75;;
65831;SDS011;52593;42.648;23.332;2023-12-20T10:57:28;66.50;;;25.40;;
65831;SDS011;52593;42.648;23.332;2023-12-20T10:59:54;68.43;;;27.02;;
65831;SDS011;52593;42.648;23.332;2023-12-20T11:02:25;79.32;;;28.48;;
65831;SDS011;52593;42.648;23.332;2023-12-20T11:04:55;73.32;;;25.92;;
65831;SDS011;52593;42.648;23.332;2023-12-20T11:16:19;63.13;;;24.45;;
65831;SDS011;52593;42.648;23.332;2023-12-20T11:18:45;68.13;;;24.33;;
65831;SDS011;52593;42.648;23.332;2023-12-20T11:21:10;66.47;;;23.83;;
65831;SDS011;52593;42.648;23.332;2023-12-20T11:23:36;69.33;;;24.10;;
65831;SDS011;52593;42.648;23.332;2023-12-20T11:26:02;75.43;;;27.30;;
65831;SDS011;52593;42.648;23.332;2023-12-20T11:28:28;70.88;;;26.33;;
65831;SDS011;52593;42.648;23.332;2023-12-20T11:30:56;72.50;;;25.57;;
65831;SDS011;52593;42.648;23.332;2023-12-20T11:33:25;62.60;;;23.58;;
65831;SDS011;52593;42.648;23.332;2023-12-20T11:35:52;71.10;;;25.23;;
65831;SDS011;52593;42.648;23.332;2023-12-20T11:38:20;66.50;;;25.52;;
65831;SDS011;52593;42.648;23.332;2023-12-20T11:40:47;71.13;;;24.17;;
65831;SDS011;52593;42.648;23.332;2023-12-20T11:43:29;68.77;;;25.07;;
65831;SDS011;52593;42.648;23.332;2023-12-20T11:46:06;72.25;;;24.90;;
65831;SDS011;52593;42.648;23.332;2023-12-20T11:48:37;74.32;;;26.15;;
65831;SDS011;52593;42.648;23.332;2023-12-20T11:51:11;69.80;;;26.27;;
65831;SDS011;52593;42.648;23.332;2023-12-20T11:53:38;64.85;;;24.42;;
65831;SDS011;52593;42.648;23.332;2023-12-20T11:56:05;71.33;;;24.63;;
65831;SDS011;52593;42.648;23.332;2023-12-20T11:58:32;67.13;;;25.00;;
65831;SDS011;52593;42.648;23.332;2023-12-20T12:00:58;67.55;;;23.98;;
65831;SDS011;52593;42.648;23.332;2023-12-20T12:03:24;60.87;;;23.00;;
65831;SDS011;52593;42.648;23.332;2023-12-20T12:05:49;76.22;;;25.73;;
65831;SDS011;52593;42.648;23.332;2023-12-20T12:08:15;67.30;;;25.50;;
65831;SDS011;52593;42.648;23.332;2023-12-20T12:10:42;67.30;;;25.42;;
65831;SDS011;52593;42.648;23.332;2023-12-20T12:13:09;65.70;;;25.23;;
65831;SDS011;52593;42.648;23.332;2023-12-20T12:15:35;67.03;;;25.57;;
65831;SDS011;52593;42.648;23.332;2023-12-20T12:18:01;69.80;;;27.60;;
65831;SDS011;52593;42.648;23.332;2023-12-20T12:20:27;73.32;;;27.38;;
65831;SDS011;52593;42.648;23.332;2023-12-20T12:25:29;77.30;;;27.42;;
65831;SDS011;52593;42.648;23.332;2023-12-20T12:27:56;71.18;;;27.15;;
65831;SDS011;52593;42.648;23.332;2023-12-20T12:30:23;74.85;;;26.70;;
65831;SDS011;52593;42.648;23.332;2023-12-20T12:32:49;63.33;;;25.97;;
65831;SDS011;52593;42.648;23.332;2023-12-20T12:35:16;72.88;;;28.40;;
65831;SDS011;52593;42.648;23.332;2023-12-20T12:37:42;64.05;;;25.83;;
65831;SDS011;52593;42.648;23.332;2023-12-20T12:40:12;70.67;;;27.67;;
65831;SDS011;52593;42.648;23.332;2023-12-20T12:42:39;63.35;;;25.25;;
65831;SDS011;52593;42.648;23.332;2023-12-20T12:45:05;62.67;;;25.73;;
65831;SDS011;52593;42.648;23.332;2023-12-20T12:47:32;66.05;;;25.98;;
65831;SDS011;52593;42.648;23.332;2023-12-20T12:49:58;69.15;;;25.33;;
65831;SDS011;52593;42.648;23.332;2023-12-20T12:52:24;64.50;;;23.13;;
65831;SDS011;52593;42.648;23.332;2023-12-20T12:54:49;58.60;;;22.17;;
65831;SDS011;52593;42.648;23.332;2023-12-20T12:57:15;61.95;;;23.45;;
65831;SDS011;52593;42.648;23.332;2023-12-20T12:59:41;65.70;;;24.40;;
65831;SDS011;52593;42.648;23.332;2023-12-20T13:02:09;57.20;;;22.27;;
65831;SDS011;52593;42.648;23.332;2023-12-20T13:04:34;60.30;;;22.37;;
65831;SDS011;52593;42.648;23.332;2023-12-20T13:07:00;60.80;;;23.20;;
65831;SDS011;52593;42.648;23.332;2023-12-20T13:09:26;65.53;;;24.90;;
65831;SDS011;52593;42.648;23.332;2023-12-20T13:11:51;66.00;;;22.27;;
65831;SDS011;52593;42.648;23.332;2023-12-20T13:14:16;58.30;;;21.97;;
65831;SDS011;52593;42.648;23.332;2023-12-20T13:16:42;61.87;;;21.50;;
65831;SDS011;52593;42.648;23.332;2023-12-20T13:19:07;65.60;;;25.23;;
65831;SDS011;52593;42.648;23.332;2023-12-20T13:21:33;65.23;;;23.07;;
65831;SDS011;52593;42.648;23.332;2023-12-20T13:23:59;59.25;;;22.65;;
65831;SDS011;52593;42.648;23.332;2023-12-20T13:26:24;73.00;;;24.27;;
65831;SDS011;52593;42.648;23.332;2023-12-20T13:28:50;73.20;;;25.60;;
65831;SDS011;52593;42.648;23.332;2023-12-20T13:31:15;72.72;;;26.83;;
65831;SDS011;52593;42.648;23.332;2023-12-20T13:33:41;68.57;;;24.30;;
65831;SDS011;52593;42.648;23.332;2023-12-20T13:36:06;65.40;;;23.73;;
65831;SDS011;52593;42.648;23.332;2023-12-20T13:38:32;73.70;;;24.95;;
65831;SDS011;52593;42.648;23.332;2023-12-20T13:40:58;74.80;;;25.17;;
65831;SDS011;52593;42.648;23.332;2023-12-20T13:43:24;65.00;;;24.02;;
65831;SDS011;52593;42.648;23.332;2023-12-20T13:45:49;67.47;;;23.80;;
65831;SDS011;52593;42.648;23.332;2023-12-20T13:48:15;61.97;;;23.08;;
65831;SDS011;52593;42.648;23.332;2023-12-20T13:50:41;66.13;;;23.73;;
65831;SDS011;52593;42.648;23.332;2023-12-20T13:53:07;61.77;;;23.13;;
65831;SDS011;52593;42.648;23.332;2023-12-20T13:55:32;69.97;;;24.90;;
65831;SDS011;52593;42.648;23.332;2023-12-20T13:57:57;63.92;;;23.02;;
65831;SDS011;52593;42.648;23.332;2023-12-20T14:00:23;67.97;;;24.43;;
65831;SDS011;52593;42.648;23.332;2023-12-20T14:02:48;50.17;;;19.87;;
65831;SDS011;52593;42.648;23.332;2023-12-20T14:05:15;75.80;;;26.15;;
65831;SDS011;52593;42.648;23.332;2023-12-20T14:07:44;72.72;;;25.17;;
65831;SDS011;52593;42.648;23.332;2023-12-20T14:10:13;73.95;;;25.48;;
65831;SDS011;52593;42.648;23.332;2023-12-20T14:12:39;78.95;;;25.92;;
65831;SDS011;52593;42.648;23.332;2023-12-20T14:15:05;72.20;;;23.53;;